sensor_id;sensor_type;location;lat;lon;timestamp;P1;durP1;ratioP1;P2;durP2;ratioP2
12840;SDS011;6487;48.626;12.486;2023-05-31T00:00:28;4.90;;;2.47;;
12840;SDS011;6487;48.626;12.486;2023-05-31T00:03:01;4.77;;;2.80;;
12840;SDS011;6487;48.626;12.486;2023-05-31T00:05:35;3.10;;;2.30;;
12840;SDS011;6487;48.626;12.486;2023-05-31T00:08:03;3.30;;;2.20;;
12840;SDS011;6487;48.626;12.486;2023-05-31T00:10:33;3.87;;;2.53;;
12840;SDS011;6487;48.626;12.486;2023-05-31T00:13:01;4.60;;;2.57;;
12840;SDS011;6487;48.626;12.486;2023-05-31T00:15:30;2.93;;;2.43;;
12840;SDS011;6487;48.626;12.486;2023-05-31T00:17:58;3.57;;;2.40;;
12840;SDS011;6487;48.626;12.486;2023-05-31T00:20:27;3.63;;;2.47;;
12840;SDS011;6487;48.626;12.486;2023-05-31T00:22:55;4.30;;;2.30;;
12840;SDS011;6487;48.626;12.486;2023-05-31T00:25:23;2.67;;;2.23;;
12840;SDS011;6487;48.626;12.486;2023-05-31T00:27:53;3.63;;;2.50;;
12840;SDS011;6487;48.626;12.486;2023-05-31T00:30:24;5.83;;;2.60;;
12840;SDS011;6487;48.626;12.486;2023-05-31T00:32:53;4.47;;;2.50;;
12840;SDS011;6487;48.626;12.486;2023-05-31T00:35:21;4.13;;;2.23;;
12840;SDS011;6487;48.626;12.486;2023-05-31T00:37:50;4.43;;;2.27;;
12840;SDS011;6487;48.626;12.486;2023-05-31T00:40:18;5.57;;;1.80;;
12840;SDS011;6487;48.626;12.486;2023-05-31T00:42:47;3.53;;;2.30;;
12840;SDS011;6487;48.626;12.486;2023-05-31T00:45:20;4.10;;;2.07;;
12840;SDS011;6487;48.626;12.486;2023-05-31T00:47:48;4.63;;;2.20;;
12840;SDS011;6487;48.626;12.486;2023-05-31T00:50:17;3.37;;;2.20;;
12840;SDS011;6487;48.626;12.486;2023-05-31T00:52:49;3.73;;;2.10;;
12840;SDS011;6487;48.626;12.486;2023-05-31T00:55:23;3.17;;;2.10;;
12840;SDS011;6487;48.626;12.486;2023-05-31T00:57:55;4.10;;;2.40;;
12840;SDS011;6487;48.626;12.486;2023-05-31T01:00:26;4.57;;;2.30;;
12840;SDS011;6487;48.626;12.486;2023-05-31T01:02:55;2.20;;;1.70;;
12840;SDS011;6487;48.626;12.486;2023-05-31T01:05:27;7.07;;;2.67;;
12840;SDS011;6487;48.626;12.486;2023-05-31T01:07:56;3.70;;;2.00;;
12840;SDS011;6487;48.626;12.486;2023-05-31T01:10:25;3.60;;;2.10;;
12840;SDS011;6487;48.626;12.486;2023-05-31T01:12:56;4.53;;;2.37;;
12840;SDS011;6487;48.626;12.486;2023-05-31T01:15:35;3.20;;;1.80;;
12840;SDS011;6487;48.626;12.486;2023-05-31T01:18:16;4.20;;;2.13;;
12840;SDS011;6487;48.626;12.486;2023-05-31T01:20:52;4.07;;;2.10;;
12840;SDS011;6487;48.626;12.486;2023-05-31T01:23:33;2.97;;;1.90;;
12840;SDS011;6487;48.626;12.486;2023-05-31T01:26:29;4.83;;;2.00;;
12840;SDS011;6487;48.626;12.486;2023-05-31T01:29:03;2.73;;;1.80;;
12840;SDS011;6487;48.626;12.486;2023-05-31T01:31:35;5.23;;;2.00;;
12840;SDS011;6487;48.626;12.486;2023-05-31T01:34:05;5.37;;;2.13;;
12840;SDS011;6487;48.626;12.486;2023-05-31T01:36:39;3.90;;;2.10;;
12840;SDS011;6487;48.626;12.486;2023-05-31T01:39:08;2.57;;;1.90;;
12840;SDS011;6487;48.626;12.486;2023-05-31T01:41:39;4.10;;;2.57;;
12840;SDS011;6487;48.626;12.486;2023-05-31T01:44:10;4.20;;;2.20;;
12840;SDS011;6487;48.626;12.486;2023-05-31T01:46:41;3.87;;;2.03;;
12840;SDS011;6487;48.626;12.486;2023-05-31T01:49:10;4.07;;;2.20;;
12840;SDS011;6487;48.626;12.486;2023-05-31T01:51:41;2.90;;;2.20;;
12840;SDS011;6487;48.626;12.486;2023-05-31T01:54:12;3.10;;;2.17;;
12840;SDS011;6487;48.626;12.486;2023-05-31T01:56:42;3.80;;;2.33;;
12840;SDS011;6487;48.626;12.486;2023-05-31T01:59:14;3.73;;;2.00;;
12840;SDS011;6487;48.626;12.486;2023-05-31T02:01:43;2.50;;;2.27;;
12840;SDS011;6487;48.626;12.486;2023-05-31T02:04:12;3.97;;;2.00;;
12840;SDS011;6487;48.626;12.486;2023-05-31T02:06:46;3.97;;;2.47;;
12840;SDS011;6487;48.626;12.486;2023-05-31T02:09:14;3.93;;;2.10;;
12840;SDS011;6487;48.626;12.486;2023-05-31T02:11:44;2.73;;;2.10;;
12840;SDS011;6487;48.626;12.486;2023-05-31T02:14:12;5.07;;;2.30;;
12840;SDS011;6487;48.626;12.486;2023-05-31T02:16:40;4.57;;;2.23;;
12840;SDS011;6487;48.626;12.486;2023-05-31T02:19:09;4.90;;;2.13;;
12840;SDS011;6487;48.626;12.486;2023-05-31T02:21:40;2.10;;;1.90;;
12840;SDS011;6487;48.626;12.486;2023-05-31T02:24:08;4.17;;;2.40;;
12840;SDS011;6487;48.626;12.486;2023-05-31T02:26:37;3.10;;;2.60;;
12840;SDS011;6487;48.626;12.486;2023-05-31T02:29:07;7.07;;;2.30;;
12840;SDS011;6487;48.626;12.486;2023-05-31T02:31:37;4.13;;;2.47;;
12840;SDS011;6487;48.626;12.486;2023-05-31T02:34:06;5.97;;;2.40;;
12840;SDS011;6487;48.626;12.486;2023-05-31T02:36:34;2.93;;;2.37;;
12840;SDS011;6487;48.626;12.486;2023-05-31T02:39:03;4.90;;;2.87;;
12840;SDS011;6487;48.626;12.486;2023-05-31T02:41:34;4.47;;;2.60;;
12840;SDS011;6487;48.626;12.486;2023-05-31T02:44:03;3.57;;;2.63;;
12840;SDS011;6487;48.626;12.486;2023-05-31T02:46:33;4.53;;;2.77;;
12840;SDS011;6487;48.626;12.486;2023-05-31T02:49:01;3.53;;;2.37;;
12840;SDS011;6487;48.626;12.486;2023-05-31T02:51:29;4.37;;;2.40;;
12840;SDS011;6487;48.626;12.486;2023-05-31T02:53:58;3.00;;;2.53;;
12840;SDS011;6487;48.626;12.486;2023-05-31T02:56:26;6.43;;;2.53;;
12840;SDS011;6487;48.626;12.486;2023-05-31T02:58:55;5.30;;;2.50;;
12840;SDS011;6487;48.626;12.486;2023-05-31T03:01:23;7.00;;;2.80;;
12840;SDS011;6487;48.626;12.486;2023-05-31T03:03:56;5.17;;;2.13;;
12840;SDS011;6487;48.626;12.486;2023-05-31T03:06:24;4.00;;;2.40;;
12840;SDS011;6487;48.626;12.486;2023-05-31T03:08:53;4.13;;;2.50;;
12840;SDS011;6487;48.626;12.486;2023-05-31T03:11:23;3.20;;;2.40;;
12840;SDS011;6487;48.626;12.486;2023-05-31T03:13:52;5.20;;;2.20;;
12840;SDS011;6487;48.626;12.486;2023-05-31T03:16:20;3.67;;;2.43;;
12840;SDS011;6487;48.626;12.486;2023-05-31T03:18:49;5.17;;;2.90;;
12840;SDS011;6487;48.626;12.486;2023-05-31T03:21:22;3.40;;;2.63;;
12840;SDS011;6487;48.626;12.486;2023-05-31T03:23:51;3.63;;;2.60;;
12840;SDS011;6487;48.626;12.486;2023-05-31T03:26:20;8.00;;;2.23;;
12840;SDS011;6487;48.626;12.486;2023-05-31T03:28:48;3.60;;;2.53;;
12840;SDS011;6487;48.626;12.486;2023-05-31T03:31:17;4.73;;;2.43;;
12840;SDS011;6487;48.626;12.486;2023-05-31T03:33:45;5.43;;;3.00;;
12840;SDS011;6487;48.626;12.486;2023-05-31T03:36:14;4.50;;;2.97;;
12840;SDS011;6487;48.626;12.486;2023-05-31T03:38:43;5.77;;;3.13;;
12840;SDS011;6487;48.626;12.486;2023-05-31T03:41:12;4.27;;;2.10;;
12840;SDS011;6487;48.626;12.486;2023-05-31T03:43:40;2.57;;;2.00;;
12840;SDS011;6487;48.626;12.486;2023-05-31T03:46:09;5.70;;;2.50;;
12840;SDS011;6487;48.626;12.486;2023-05-31T03:48:37;4.67;;;2.47;;
12840;SDS011;6487;48.626;12.486;2023-05-31T03:51:06;3.37;;;2.60;;
12840;SDS011;6487;48.626;12.486;2023-05-31T03:53:34;2.80;;;2.20;;
12840;SDS011;6487;48.626;12.486;2023-05-31T03:56:04;3.53;;;2.40;;
12840;SDS011;6487;48.626;12.486;2023-05-31T03:58:33;4.93;;;2.47;;
12840;SDS011;6487;48.626;12.486;2023-05-31T04:01:01;4.93;;;2.87;;
12840;SDS011;6487;48.626;12.486;2023-05-31T04:03:30;5.77;;;2.60;;
12840;SDS011;6487;48.626;12.486;2023-05-31T04:05:59;3.37;;;2.40;;
12840;SDS011;6487;48.626;12.486;2023-05-31T04:08:27;4.43;;;2.50;;
12840;SDS011;6487;48.626;12.486;2023-05-31T04:10:56;4.23;;;2.53;;
12840;SDS011;6487;48.626;12.486;2023-05-31T04:13:26;5.03;;;2.60;;
12840;SDS011;6487;48.626;12.486;2023-05-31T04:15:54;2.63;;;2.37;;
12840;SDS011;6487;48.626;12.486;2023-05-31T04:18:22;6.30;;;2.87;;
12840;SDS011;6487;48.626;12.486;2023-05-31T04:20:51;4.40;;;2.20;;
12840;SDS011;6487;48.626;12.486;2023-05-31T04:23:19;3.90;;;2.60;;
12840;SDS011;6487;48.626;12.486;2023-05-31T04:25:48;4.33;;;2.37;;
12840;SDS011;6487;48.626;12.486;2023-05-31T04:28:16;4.13;;;2.57;;
12840;SDS011;6487;48.626;12.486;2023-05-31T04:30:47;3.73;;;2.50;;
12840;SDS011;6487;48.626;12.486;2023-05-31T04:33:15;3.40;;;2.50;;
12840;SDS011;6487;48.626;12.486;2023-05-31T04:35:45;4.37;;;2.50;;
12840;SDS011;6487;48.626;12.486;2023-05-31T04:38:14;4.50;;;2.67;;
12840;SDS011;6487;48.626;12.486;2023-05-31T04:40:43;6.03;;;2.50;;
12840;SDS011;6487;48.626;12.486;2023-05-31T04:43:11;3.53;;;2.50;;
12840;SDS011;6487;48.626;12.486;2023-05-31T04:45:40;4.10;;;2.63;;
12840;SDS011;6487;48.626;12.486;2023-05-31T04:48:09;3.70;;;2.57;;
12840;SDS011;6487;48.626;12.486;2023-05-31T04:50:38;3.60;;;2.90;;
12840;SDS011;6487;48.626;12.486;2023-05-31T04:53:06;6.37;;;3.03;;
12840;SDS011;6487;48.626;12.486;2023-05-31T04:55:35;5.50;;;3.00;;
12840;SDS011;6487;48.626;12.486;2023-05-31T04:58:03;6.17;;;3.03;;
12840;SDS011;6487;48.626;12.486;2023-05-31T05:00:31;5.80;;;2.83;;
12840;SDS011;6487;48.626;12.486;2023-05-31T05:03:00;3.77;;;2.83;;
12840;SDS011;6487;48.626;12.486;2023-05-31T05:05:30;3.60;;;3.03;;
12840;SDS011;6487;48.626;12.486;2023-05-31T05:07:59;6.67;;;3.20;;
12840;SDS011;6487;48.626;12.486;2023-05-31T05:10:27;7.60;;;4.13;;
12840;SDS011;6487;48.626;12.486;2023-05-31T05:12:55;5.80;;;3.70;;
12840;SDS011;6487;48.626;12.486;2023-05-31T05:15:24;5.43;;;3.00;;
12840;SDS011;6487;48.626;12.486;2023-05-31T05:17:52;5.70;;;3.00;;
12840;SDS011;6487;48.626;12.486;2023-05-31T05:20:21;4.53;;;2.60;;
12840;SDS011;6487;48.626;12.486;2023-05-31T05:22:51;4.17;;;2.70;;
12840;SDS011;6487;48.626;12.486;2023-05-31T05:25:20;5.10;;;2.23;;
12840;SDS011;6487;48.626;12.486;2023-05-31T05:27:49;3.60;;;2.60;;
12840;SDS011;6487;48.626;12.486;2023-05-31T05:30:17;4.53;;;2.83;;
12840;SDS011;6487;48.626;12.486;2023-05-31T05:32:45;5.00;;;2.83;;
12840;SDS011;6487;48.626;12.486;2023-05-31T05:35:14;6.53;;;2.60;;
12840;SDS011;6487;48.626;12.486;2023-05-31T05:37:42;3.23;;;2.70;;
12840;SDS011;6487;48.626;12.486;2023-05-31T05:40:12;5.77;;;2.97;;
12840;SDS011;6487;48.626;12.486;2023-05-31T05:42:41;6.93;;;3.60;;
12840;SDS011;6487;48.626;12.486;2023-05-31T05:45:10;4.10;;;2.97;;
12840;SDS011;6487;48.626;12.486;2023-05-31T05:47:39;5.83;;;3.10;;
12840;SDS011;6487;48.626;12.486;2023-05-31T05:50:07;7.33;;;3.07;;
12840;SDS011;6487;48.626;12.486;2023-05-31T05:52:37;5.07;;;3.17;;
12840;SDS011;6487;48.626;12.486;2023-05-31T05:55:08;6.70;;;2.60;;
12840;SDS011;6487;48.626;12.486;2023-05-31T05:57:38;6.13;;;3.10;;
12840;SDS011;6487;48.626;12.486;2023-05-31T06:00:07;6.40;;;3.00;;
12840;SDS011;6487;48.626;12.486;2023-05-31T06:02:37;6.90;;;3.03;;
12840;SDS011;6487;48.626;12.486;2023-05-31T06:05:07;6.27;;;2.60;;
12840;SDS011;6487;48.626;12.486;2023-05-31T06:07:36;4.53;;;2.80;;
12840;SDS011;6487;48.626;12.486;2023-05-31T06:10:07;4.03;;;2.70;;
12840;SDS011;6487;48.626;12.486;2023-05-31T06:12:38;4.90;;;2.83;;
12840;SDS011;6487;48.626;12.486;2023-05-31T06:15:07;5.57;;;2.97;;
12840;SDS011;6487;48.626;12.486;2023-05-31T06:17:36;5.97;;;2.60;;
12840;SDS011;6487;48.626;12.486;2023-05-31T06:20:06;5.67;;;3.23;;
12840;SDS011;6487;48.626;12.486;2023-05-31T06:22:36;4.67;;;2.60;;
12840;SDS011;6487;48.626;12.486;2023-05-31T06:25:05;5.00;;;2.70;;
12840;SDS011;6487;48.626;12.486;2023-05-31T06:27:34;5.30;;;2.80;;
12840;SDS011;6487;48.626;12.486;2023-05-31T06:30:04;4.63;;;2.70;;
12840;SDS011;6487;48.626;12.486;2023-05-31T06:32:35;3.60;;;2.57;;
12840;SDS011;6487;48.626;12.486;2023-05-31T06:35:04;3.73;;;2.67;;
12840;SDS011;6487;48.626;12.486;2023-05-31T06:37:33;5.30;;;2.87;;
12840;SDS011;6487;48.626;12.486;2023-05-31T06:40:02;5.90;;;3.03;;
12840;SDS011;6487;48.626;12.486;2023-05-31T06:42:31;5.47;;;2.50;;
12840;SDS011;6487;48.626;12.486;2023-05-31T06:44:59;8.57;;;2.80;;
12840;SDS011;6487;48.626;12.486;2023-05-31T06:47:30;5.70;;;3.13;;
12840;SDS011;6487;48.626;12.486;2023-05-31T06:49:59;6.03;;;3.03;;
12840;SDS011;6487;48.626;12.486;2023-05-31T06:52:28;5.27;;;2.90;;
12840;SDS011;6487;48.626;12.486;2023-05-31T06:54:56;4.67;;;3.17;;
12840;SDS011;6487;48.626;12.486;2023-05-31T06:57:27;4.47;;;2.40;;
12840;SDS011;6487;48.626;12.486;2023-05-31T06:59:56;4.87;;;2.77;;
12840;SDS011;6487;48.626;12.486;2023-05-31T07:02:24;4.70;;;2.73;;
12840;SDS011;6487;48.626;12.486;2023-05-31T07:04:55;5.50;;;2.73;;
12840;SDS011;6487;48.626;12.486;2023-05-31T07:07:26;4.97;;;2.93;;
12840;SDS011;6487;48.626;12.486;2023-05-31T07:09:54;3.73;;;2.93;;
12840;SDS011;6487;48.626;12.486;2023-05-31T07:12:23;6.30;;;3.27;;
12840;SDS011;6487;48.626;12.486;2023-05-31T07:14:51;9.33;;;3.30;;
12840;SDS011;6487;48.626;12.486;2023-05-31T07:17:22;3.07;;;2.30;;
12840;SDS011;6487;48.626;12.486;2023-05-31T07:19:51;4.87;;;3.07;;
12840;SDS011;6487;48.626;12.486;2023-05-31T07:22:20;7.53;;;2.97;;
12840;SDS011;6487;48.626;12.486;2023-05-31T07:24:49;5.97;;;3.03;;
12840;SDS011;6487;48.626;12.486;2023-05-31T07:27:18;7.33;;;2.83;;
12840;SDS011;6487;48.626;12.486;2023-05-31T07:29:48;7.00;;;2.53;;
12840;SDS011;6487;48.626;12.486;2023-05-31T07:32:19;6.10;;;3.30;;
12840;SDS011;6487;48.626;12.486;2023-05-31T07:34:47;9.97;;;3.67;;
12840;SDS011;6487;48.626;12.486;2023-05-31T07:37:31;5.43;;;2.70;;
12840;SDS011;6487;48.626;12.486;2023-05-31T07:39:59;5.40;;;2.83;;
12840;SDS011;6487;48.626;12.486;2023-05-31T07:42:31;4.33;;;2.80;;
12840;SDS011;6487;48.626;12.486;2023-05-31T07:44:59;5.37;;;3.03;;
12840;SDS011;6487;48.626;12.486;2023-05-31T07:47:28;7.50;;;3.30;;
12840;SDS011;6487;48.626;12.486;2023-05-31T07:49:57;4.77;;;2.83;;
12840;SDS011;6487;48.626;12.486;2023-05-31T07:52:28;5.53;;;3.00;;
12840;SDS011;6487;48.626;12.486;2023-05-31T07:54:58;6.30;;;2.80;;
12840;SDS011;6487;48.626;12.486;2023-05-31T07:57:26;6.40;;;2.90;;
12840;SDS011;6487;48.626;12.486;2023-05-31T07:59:55;4.67;;;3.10;;
12840;SDS011;6487;48.626;12.486;2023-05-31T08:02:28;3.70;;;3.07;;
12840;SDS011;6487;48.626;12.486;2023-05-31T08:05:00;5.63;;;3.30;;
12840;SDS011;6487;48.626;12.486;2023-05-31T08:07:28;4.90;;;2.90;;
12840;SDS011;6487;48.626;12.486;2023-05-31T08:09:58;5.47;;;2.60;;
12840;SDS011;6487;48.626;12.486;2023-05-31T08:12:29;5.70;;;2.70;;
12840;SDS011;6487;48.626;12.486;2023-05-31T08:14:58;5.50;;;3.00;;
12840;SDS011;6487;48.626;12.486;2023-05-31T08:17:27;5.97;;;2.60;;
12840;SDS011;6487;48.626;12.486;2023-05-31T08:19:58;6.43;;;3.03;;
12840;SDS011;6487;48.626;12.486;2023-05-31T08:22:26;7.27;;;3.27;;
12840;SDS011;6487;48.626;12.486;2023-05-31T08:24:56;6.87;;;3.00;;
12840;SDS011;6487;48.626;12.486;2023-05-31T08:27:25;9.27;;;3.57;;
12840;SDS011;6487;48.626;12.486;2023-05-31T08:29:55;5.50;;;2.83;;
12840;SDS011;6487;48.626;12.486;2023-05-31T08:32:23;6.10;;;3.07;;
12840;SDS011;6487;48.626;12.486;2023-05-31T08:34:52;4.97;;;3.27;;
12840;SDS011;6487;48.626;12.486;2023-05-31T08:37:20;5.57;;;2.70;;
12840;SDS011;6487;48.626;12.486;2023-05-31T08:39:48;5.33;;;2.70;;
12840;SDS011;6487;48.626;12.486;2023-05-31T08:42:33;5.70;;;3.13;;
12840;SDS011;6487;48.626;12.486;2023-05-31T08:45:08;6.10;;;3.10;;
12840;SDS011;6487;48.626;12.486;2023-05-31T08:47:39;3.83;;;3.20;;
12840;SDS011;6487;48.626;12.486;2023-05-31T08:50:11;8.37;;;3.30;;
12840;SDS011;6487;48.626;12.486;2023-05-31T08:52:42;5.93;;;3.33;;
12840;SDS011;6487;48.626;12.486;2023-05-31T08:55:12;6.50;;;3.53;;
12840;SDS011;6487;48.626;12.486;2023-05-31T08:57:46;6.40;;;3.90;;
12840;SDS011;6487;48.626;12.486;2023-05-31T09:00:18;6.20;;;3.90;;
12840;SDS011;6487;48.626;12.486;2023-05-31T09:02:47;7.13;;;3.50;;
12840;SDS011;6487;48.626;12.486;2023-05-31T09:05:18;7.17;;;3.37;;
12840;SDS011;6487;48.626;12.486;2023-05-31T09:07:46;9.03;;;3.57;;
12840;SDS011;6487;48.626;12.486;2023-05-31T09:10:16;5.43;;;3.50;;
12840;SDS011;6487;48.626;12.486;2023-05-31T09:12:47;5.80;;;3.70;;
12840;SDS011;6487;48.626;12.486;2023-05-31T09:15:16;7.10;;;3.83;;
12840;SDS011;6487;48.626;12.486;2023-05-31T09:17:45;8.57;;;3.87;;
12840;SDS011;6487;48.626;12.486;2023-05-31T09:20:13;5.90;;;3.47;;
12840;SDS011;6487;48.626;12.486;2023-05-31T09:22:46;10.23;;;3.73;;
12840;SDS011;6487;48.626;12.486;2023-05-31T09:25:16;4.90;;;3.77;;
12840;SDS011;6487;48.626;12.486;2023-05-31T09:27:48;8.23;;;3.90;;
12840;SDS011;6487;48.626;12.486;2023-05-31T09:30:18;7.23;;;3.57;;
12840;SDS011;6487;48.626;12.486;2023-05-31T09:32:52;5.07;;;3.97;;
12840;SDS011;6487;48.626;12.486;2023-05-31T09:35:23;5.20;;;3.60;;
12840;SDS011;6487;48.626;12.486;2023-05-31T09:37:58;5.80;;;3.63;;
12840;SDS011;6487;48.626;12.486;2023-05-31T09:40:32;8.30;;;3.60;;
12840;SDS011;6487;48.626;12.486;2023-05-31T09:43:02;5.30;;;3.57;;
12840;SDS011;6487;48.626;12.486;2023-05-31T09:45:31;6.40;;;3.97;;
12840;SDS011;6487;48.626;12.486;2023-05-31T09:48:05;6.13;;;3.90;;
12840;SDS011;6487;48.626;12.486;2023-05-31T09:50:38;6.00;;;3.67;;
12840;SDS011;6487;48.626;12.486;2023-05-31T09:53:08;5.00;;;3.70;;
12840;SDS011;6487;48.626;12.486;2023-05-31T09:55:44;6.17;;;3.80;;
12840;SDS011;6487;48.626;12.486;2023-05-31T09:58:26;5.13;;;3.73;;
12840;SDS011;6487;48.626;12.486;2023-05-31T10:00:58;6.73;;;3.70;;
12840;SDS011;6487;48.626;12.486;2023-05-31T10:03:27;6.33;;;4.17;;
12840;SDS011;6487;48.626;12.486;2023-05-31T10:05:59;5.60;;;3.40;;
12840;SDS011;6487;48.626;12.486;2023-05-31T10:08:28;5.37;;;3.93;;
12840;SDS011;6487;48.626;12.486;2023-05-31T10:10:58;5.72;;;3.67;;
12840;SDS011;6487;48.626;12.486;2023-05-31T10:13:30;8.18;;;3.92;;
12840;SDS011;6487;48.626;12.486;2023-05-31T10:16:05;8.82;;;4.45;;
12840;SDS011;6487;48.626;12.486;2023-05-31T10:18:36;5.03;;;4.13;;
12840;SDS011;6487;48.626;12.486;2023-05-31T10:21:10;4.30;;;3.73;;
12840;SDS011;6487;48.626;12.486;2023-05-31T10:23:51;5.33;;;4.03;;
12840;SDS011;6487;48.626;12.486;2023-05-31T10:26:31;4.30;;;3.90;;
12840;SDS011;6487;48.626;12.486;2023-05-31T10:29:13;5.68;;;3.50;;
12840;SDS011;6487;48.626;12.486;2023-05-31T10:31:48;8.20;;;4.13;;
12840;SDS011;6487;48.626;12.486;2023-05-31T10:34:20;6.50;;;4.18;;
12840;SDS011;6487;48.626;12.486;2023-05-31T10:36:50;5.80;;;3.90;;
12840;SDS011;6487;48.626;12.486;2023-05-31T10:39:21;4.15;;;3.75;;
12840;SDS011;6487;48.626;12.486;2023-05-31T10:42:03;5.95;;;4.13;;
12840;SDS011;6487;48.626;12.486;2023-05-31T10:44:42;5.70;;;4.00;;
12840;SDS011;6487;48.626;12.486;2023-05-31T10:47:25;6.55;;;3.95;;
12840;SDS011;6487;48.626;12.486;2023-05-31T10:50:01;8.15;;;4.20;;
12840;SDS011;6487;48.626;12.486;2023-05-31T10:52:38;5.72;;;3.83;;
12840;SDS011;6487;48.626;12.486;2023-05-31T10:55:17;4.38;;;3.70;;
12840;SDS011;6487;48.626;12.486;2023-05-31T10:57:52;6.28;;;4.03;;
12840;SDS011;6487;48.626;12.486;2023-05-31T11:00:26;5.65;;;4.05;;
12840;SDS011;6487;48.626;12.486;2023-05-31T11:02:56;5.97;;;3.90;;
12840;SDS011;6487;48.626;12.486;2023-05-31T11:05:26;4.03;;;3.65;;
12840;SDS011;6487;48.626;12.486;2023-05-31T11:07:57;8.93;;;4.32;;
12840;SDS011;6487;48.626;12.486;2023-05-31T11:10:29;3.67;;;3.30;;
12840;SDS011;6487;48.626;12.486;2023-05-31T11:13:01;5.88;;;3.78;;
12840;SDS011;6487;48.626;12.486;2023-05-31T11:15:42;6.13;;;4.35;;
12840;SDS011;6487;48.626;12.486;2023-05-31T11:18:13;5.65;;;4.65;;
12840;SDS011;6487;48.626;12.486;2023-05-31T11:20:51;4.53;;;3.63;;
12840;SDS011;6487;48.626;12.486;2023-05-31T11:23:23;6.07;;;4.07;;
12840;SDS011;6487;48.626;12.486;2023-05-31T11:26:11;6.35;;;4.30;;
12840;SDS011;6487;48.626;12.486;2023-05-31T11:28:49;5.22;;;3.60;;
12840;SDS011;6487;48.626;12.486;2023-05-31T11:31:56;4.22;;;3.80;;
12840;SDS011;6487;48.626;12.486;2023-05-31T11:34:31;4.35;;;3.70;;
12840;SDS011;6487;48.626;12.486;2023-05-31T11:37:08;7.03;;;4.18;;
12840;SDS011;6487;48.626;12.486;2023-05-31T11:39:36;4.78;;;3.95;;
12840;SDS011;6487;48.626;12.486;2023-05-31T11:42:05;7.55;;;4.10;;
12840;SDS011;6487;48.626;12.486;2023-05-31T11:44:40;4.53;;;3.25;;
12840;SDS011;6487;48.626;12.486;2023-05-31T11:47:18;4.63;;;4.10;;
12840;SDS011;6487;48.626;12.486;2023-05-31T11:49:48;6.88;;;3.90;;
12840;SDS011;6487;48.626;12.486;2023-05-31T11:52:17;4.05;;;3.35;;
12840;SDS011;6487;48.626;12.486;2023-05-31T11:54:48;7.03;;;4.00;;
12840;SDS011;6487;48.626;12.486;2023-05-31T11:57:17;6.57;;;4.13;;
12840;SDS011;6487;48.626;12.486;2023-05-31T11:59:46;5.65;;;3.53;;
12840;SDS011;6487;48.626;12.486;2023-05-31T12:02:15;6.55;;;4.18;;
12840;SDS011;6487;48.626;12.486;2023-05-31T12:04:46;4.82;;;3.78;;
12840;SDS011;6487;48.626;12.486;2023-05-31T12:07:15;4.65;;;3.42;;
12840;SDS011;6487;48.626;12.486;2023-05-31T12:09:46;6.55;;;3.88;;
12840;SDS011;6487;48.626;12.486;2023-05-31T12:12:14;4.65;;;3.97;;
12840;SDS011;6487;48.626;12.486;2023-05-31T12:14:48;4.40;;;3.53;;
12840;SDS011;6487;48.626;12.486;2023-05-31T12:17:18;5.30;;;3.15;;
12840;SDS011;6487;48.626;12.486;2023-05-31T12:19:50;7.47;;;3.53;;
12840;SDS011;6487;48.626;12.486;2023-05-31T12:22:18;4.50;;;4.00;;
12840;SDS011;6487;48.626;12.486;2023-05-31T12:24:48;4.72;;;3.90;;
12840;SDS011;6487;48.626;12.486;2023-05-31T12:27:17;4.38;;;3.97;;
12840;SDS011;6487;48.626;12.486;2023-05-31T12:30:02;5.78;;;3.90;;
12840;SDS011;6487;48.626;12.486;2023-05-31T12:32:35;6.97;;;3.60;;
12840;SDS011;6487;48.626;12.486;2023-05-31T12:35:14;5.00;;;3.90;;
12840;SDS011;6487;48.626;12.486;2023-05-31T12:37:42;3.90;;;3.38;;
12840;SDS011;6487;48.626;12.486;2023-05-31T12:40:11;5.05;;;3.85;;
12840;SDS011;6487;48.626;12.486;2023-05-31T12:42:41;4.00;;;3.47;;
12840;SDS011;6487;48.626;12.486;2023-05-31T12:45:10;3.92;;;3.45;;
12840;SDS011;6487;48.626;12.486;2023-05-31T12:47:41;6.53;;;3.75;;
12840;SDS011;6487;48.626;12.486;2023-05-31T12:50:11;7.18;;;3.75;;
12840;SDS011;6487;48.626;12.486;2023-05-31T12:52:40;6.10;;;3.97;;
12840;SDS011;6487;48.626;12.486;2023-05-31T12:55:09;6.40;;;3.65;;
12840;SDS011;6487;48.626;12.486;2023-05-31T12:57:37;5.50;;;3.63;;
12840;SDS011;6487;48.626;12.486;2023-05-31T13:00:08;7.10;;;3.45;;
12840;SDS011;6487;48.626;12.486;2023-05-31T13:02:39;7.03;;;4.03;;
12840;SDS011;6487;48.626;12.486;2023-05-31T13:05:08;4.07;;;3.47;;
12840;SDS011;6487;48.626;12.486;2023-05-31T13:07:40;5.55;;;4.10;;
12840;SDS011;6487;48.626;12.486;2023-05-31T13:10:15;5.45;;;3.75;;
12840;SDS011;6487;48.626;12.486;2023-05-31T13:12:43;7.82;;;3.67;;
12840;SDS011;6487;48.626;12.486;2023-05-31T13:15:11;6.28;;;3.97;;
12840;SDS011;6487;48.626;12.486;2023-05-31T13:17:40;5.97;;;3.72;;
12840;SDS011;6487;48.626;12.486;2023-05-31T13:20:11;4.43;;;3.72;;
12840;SDS011;6487;48.626;12.486;2023-05-31T13:22:42;10.20;;;3.97;;
12840;SDS011;6487;48.626;12.486;2023-05-31T13:25:10;5.47;;;3.78;;
12840;SDS011;6487;48.626;12.486;2023-05-31T13:27:41;6.07;;;4.70;;
12840;SDS011;6487;48.626;12.486;2023-05-31T13:30:10;5.25;;;4.40;;
12840;SDS011;6487;48.626;12.486;2023-05-31T13:32:42;4.65;;;3.60;;
12840;SDS011;6487;48.626;12.486;2023-05-31T13:35:11;6.60;;;3.88;;
12840;SDS011;6487;48.626;12.486;2023-05-31T13:37:39;8.50;;;3.95;;
12840;SDS011;6487;48.626;12.486;2023-05-31T13:40:09;6.55;;;3.97;;
12840;SDS011;6487;48.626;12.486;2023-05-31T13:42:39;5.68;;;3.92;;
12840;SDS011;6487;48.626;12.486;2023-05-31T13:45:08;4.35;;;3.95;;
12840;SDS011;6487;48.626;12.486;2023-05-31T13:47:37;7.63;;;3.58;;
12840;SDS011;6487;48.626;12.486;2023-05-31T13:50:06;8.02;;;3.55;;
12840;SDS011;6487;48.626;12.486;2023-05-31T13:52:35;5.38;;;3.88;;
12840;SDS011;6487;48.626;12.486;2023-05-31T13:55:06;5.45;;;3.55;;
12840;SDS011;6487;48.626;12.486;2023-05-31T13:57:35;5.25;;;4.32;;
12840;SDS011;6487;48.626;12.486;2023-05-31T14:00:07;7.75;;;4.60;;
12840;SDS011;6487;48.626;12.486;2023-05-31T14:02:37;5.35;;;4.10;;
12840;SDS011;6487;48.626;12.486;2023-05-31T14:05:07;4.95;;;3.33;;
12840;SDS011;6487;48.626;12.486;2023-05-31T14:07:38;5.40;;;4.20;;
12840;SDS011;6487;48.626;12.486;2023-05-31T14:10:08;5.78;;;4.00;;
12840;SDS011;6487;48.626;12.486;2023-05-31T14:12:37;4.95;;;3.45;;
12840;SDS011;6487;48.626;12.486;2023-05-31T14:15:06;4.57;;;3.80;;
12840;SDS011;6487;48.626;12.486;2023-05-31T14:17:36;4.32;;;3.92;;
12840;SDS011;6487;48.626;12.486;2023-05-31T14:20:05;4.28;;;3.80;;
12840;SDS011;6487;48.626;12.486;2023-05-31T14:22:34;4.60;;;3.92;;
12840;SDS011;6487;48.626;12.486;2023-05-31T14:25:06;5.25;;;3.78;;
12840;SDS011;6487;48.626;12.486;2023-05-31T14:27:37;5.13;;;4.07;;
12840;SDS011;6487;48.626;12.486;2023-05-31T14:30:06;6.97;;;3.75;;
12840;SDS011;6487;48.626;12.486;2023-05-31T14:32:35;4.97;;;3.70;;
12840;SDS011;6487;48.626;12.486;2023-05-31T14:35:04;4.43;;;4.00;;
12840;SDS011;6487;48.626;12.486;2023-05-31T14:37:40;9.60;;;4.32;;
12840;SDS011;6487;48.626;12.486;2023-05-31T14:40:24;4.53;;;3.88;;
12840;SDS011;6487;48.626;12.486;2023-05-31T14:42:53;5.72;;;3.90;;
12840;SDS011;6487;48.626;12.486;2023-05-31T14:45:21;5.50;;;4.47;;
12840;SDS011;6487;48.626;12.486;2023-05-31T14:48:01;3.97;;;3.58;;
12840;SDS011;6487;48.626;12.486;2023-05-31T14:50:29;6.65;;;3.85;;
12840;SDS011;6487;48.626;12.486;2023-05-31T14:53:00;4.68;;;3.70;;
12840;SDS011;6487;48.626;12.486;2023-05-31T14:55:30;7.95;;;3.83;;
12840;SDS011;6487;48.626;12.486;2023-05-31T14:57:58;6.00;;;3.80;;
12840;SDS011;6487;48.626;12.486;2023-05-31T15:00:26;4.38;;;3.78;;
12840;SDS011;6487;48.626;12.486;2023-05-31T15:02:58;4.75;;;3.97;;
12840;SDS011;6487;48.626;12.486;2023-05-31T15:05:26;6.30;;;4.00;;
12840;SDS011;6487;48.626;12.486;2023-05-31T15:08:00;4.10;;;3.80;;